createdAt,value
2018-10-21T00:01:09.161Z,9.03
2018-10-21T00:03:37.968Z,8.80
2018-10-21T00:06:06.735Z,8.70
2018-10-21T00:08:35.544Z,9.60
2018-10-21T00:11:04.390Z,10.20
2018-10-21T00:13:33.219Z,8.87
2018-10-21T00:16:01.959Z,9.73
2018-10-21T00:18:30.634Z,7.57
2018-10-21T00:20:59.439Z,9.50
2018-10-21T00:23:28.132Z,8.33
2018-10-21T00:25:56.896Z,8.07
2018-10-21T00:28:25.559Z,9.53
2018-10-21T00:30:54.301Z,8.00
2018-10-21T00:33:23.065Z,8.67
2018-10-21T00:35:51.749Z,8.10
2018-10-21T00:38:20.469Z,7.23
2018-10-21T00:40:49.156Z,8.80
2018-10-21T00:43:17.886Z,8.10
2018-10-21T00:45:46.638Z,7.73
2018-10-21T00:48:15.363Z,7.80
2018-10-21T00:50:44.104Z,8.33
2018-10-21T00:53:12.843Z,7.57
2018-10-21T00:55:41.552Z,7.13
2018-10-21T00:58:10.277Z,7.97
2018-10-21T01:00:38.995Z,8.10
2018-10-21T01:03:07.822Z,8.53
2018-10-21T01:05:36.566Z,7.60
2018-10-21T01:08:05.758Z,7.73
2018-10-21T01:10:34.600Z,8.20
2018-10-21T01:13:03.322Z,8.00
2018-10-21T01:15:32.072Z,7.93
2018-10-21T01:18:00.899Z,7.70
2018-10-21T01:20:29.574Z,7.77
2018-10-21T01:22:58.253Z,8.53
2018-10-21T01:25:26.940Z,8.23
2018-10-21T01:27:55.664Z,8.00
2018-10-21T01:30:24.410Z,7.23
2018-10-21T01:32:53.099Z,7.27
2018-10-21T01:35:21.906Z,7.30
2018-10-21T01:37:50.660Z,7.53
2018-10-21T01:40:29.188Z,7.27
2018-10-21T01:42:58.003Z,8.10
2018-10-21T01:45:27.169Z,8.80
2018-10-21T01:47:57.006Z,7.80
2018-10-21T01:50:25.909Z,7.90
2018-10-21T01:52:55.629Z,8.40
2018-10-21T01:55:24.547Z,8.40
2018-10-21T01:57:53.543Z,8.60
2018-10-21T02:00:22.476Z,7.40
2018-10-21T02:02:51.179Z,8.97
2018-10-21T02:05:19.886Z,7.93
2018-10-21T02:07:48.751Z,9.30
2018-10-21T02:10:18.465Z,8.23
2018-10-21T02:12:47.193Z,8.50
2018-10-21T02:15:15.896Z,7.90
2018-10-21T02:17:44.623Z,8.17
2018-10-21T02:20:14.233Z,8.00
2018-10-21T02:22:43.646Z,8.70
2018-10-21T02:25:12.448Z,7.13
2018-10-21T02:27:41.922Z,8.80
2018-10-21T02:30:20.141Z,8.10
2018-10-21T02:32:49.603Z,8.57
2018-10-21T02:35:18.848Z,8.90
2018-10-21T02:37:47.931Z,7.87
2018-10-21T02:41:44.098Z,9.43
2018-10-21T02:44:14.306Z,6.83
2018-10-21T02:46:43.699Z,8.73
2018-10-21T02:49:13.112Z,8.30
2018-10-21T02:51:42.029Z,8.27
2018-10-21T02:54:11.153Z,8.43
2018-10-21T02:56:39.960Z,8.80
2018-10-21T02:59:08.761Z,8.90
2018-10-21T03:01:37.677Z,7.53
2018-10-21T03:04:06.520Z,8.07
2018-10-21T03:06:35.332Z,7.50
2018-10-21T03:09:05.619Z,6.40
2018-10-21T03:11:34.487Z,7.07
2018-10-21T03:14:03.590Z,8.17
2018-10-21T03:16:32.385Z,7.03
2018-10-21T03:19:01.198Z,7.23
2018-10-21T03:21:29.974Z,8.93
2018-10-21T03:23:58.705Z,9.50
2018-10-21T03:26:27.432Z,7.90
2018-10-21T03:28:56.314Z,8.53
2018-10-21T03:31:26.076Z,8.40
2018-10-21T03:33:55.073Z,8.93
2018-10-21T03:36:23.682Z,8.23
2018-10-21T03:38:52.558Z,9.17
2018-10-21T03:41:21.369Z,9.33
2018-10-21T03:43:50.099Z,9.00
2018-10-21T03:46:18.969Z,8.80
2018-10-21T03:48:47.784Z,9.77
2018-10-21T03:51:16.595Z,9.40
2018-10-21T03:53:45.434Z,10.37
2018-10-21T03:56:14.193Z,8.73
2018-10-21T03:58:42.997Z,8.53
2018-10-21T04:01:11.754Z,9.30
2018-10-21T04:03:40.521Z,9.23
2018-10-21T04:06:09.331Z,8.47
2018-10-21T04:08:38.046Z,9.50
2018-10-21T04:11:06.891Z,10.20
2018-10-21T04:13:35.692Z,8.57
2018-10-21T04:16:04.520Z,9.00
2018-10-21T04:18:33.348Z,9.73
2018-10-21T04:21:03.223Z,9.60
2018-10-21T04:23:31.948Z,9.47
2018-10-21T04:26:00.733Z,12.03
2018-10-21T04:28:29.469Z,11.40
2018-10-21T04:30:58.337Z,9.03
2018-10-21T04:33:57.482Z,9.77
2018-10-21T04:36:31.476Z,8.90
2018-10-21T04:39:36.184Z,8.57
2018-10-21T04:42:04.996Z,9.27
2018-10-21T04:44:33.788Z,8.73
2018-10-21T04:47:02.639Z,9.90
2018-10-21T04:49:31.377Z,8.93
2018-10-21T04:52:00.106Z,8.93
2018-10-21T04:54:34.289Z,9.30
2018-10-21T04:57:04.367Z,9.00
2018-10-21T04:59:33.203Z,8.77
2018-10-21T05:02:02.013Z,9.50
2018-10-21T05:04:30.850Z,9.07
2018-10-21T05:06:59.756Z,10.17
2018-10-21T05:09:28.593Z,9.70
2018-10-21T05:11:57.412Z,10.13
2018-10-21T05:14:26.332Z,9.80
2018-10-21T05:16:55.170Z,9.33
2018-10-21T05:19:23.850Z,8.50
2018-10-21T05:21:52.700Z,9.20
2018-10-21T05:24:21.488Z,9.57
2018-10-21T05:26:50.300Z,9.73
2018-10-21T05:29:20.077Z,9.20
2018-10-21T05:31:48.834Z,9.40
2018-10-21T05:34:17.618Z,9.97
2018-10-21T05:36:46.374Z,8.70
2018-10-21T05:39:15.093Z,10.23
2018-10-21T05:41:43.976Z,8.53
2018-10-21T05:44:12.718Z,10.30
2018-10-21T05:46:52.261Z,9.47
2018-10-21T05:49:21.145Z,9.60
2018-10-21T05:51:51.025Z,10.07
2018-10-21T05:54:20.269Z,9.33
2018-10-21T05:56:50.193Z,10.07
2018-10-21T05:59:19.125Z,10.47
2018-10-21T06:01:48.465Z,10.47
2018-10-21T06:04:18.023Z,9.60
2018-10-21T06:06:46.703Z,9.43
2018-10-21T06:09:15.696Z,9.50
2018-10-21T06:11:44.556Z,10.50
2018-10-21T06:14:13.343Z,8.27
2018-10-21T06:17:49.465Z,10.73
2018-10-21T06:20:23.367Z,7.63
2018-10-21T06:22:52.892Z,9.87
2018-10-21T06:25:21.664Z,9.83
2018-10-21T06:27:50.502Z,10.30
2018-10-21T06:30:19.255Z,9.23
2018-10-21T06:32:48.000Z,8.67
2018-10-21T06:35:16.769Z,9.40
2018-10-21T06:37:45.588Z,9.63
2018-10-21T06:40:14.320Z,9.10
2018-10-21T06:42:43.182Z,9.30
2018-10-21T06:45:12.564Z,8.77
2018-10-21T06:47:41.338Z,8.97
2018-10-21T06:50:14.598Z,9.60
2018-10-21T06:52:43.430Z,8.77
2018-10-21T06:55:12.418Z,9.43
2018-10-21T06:57:41.417Z,9.83
2018-10-21T07:00:10.226Z,9.13
2018-10-21T07:02:39.087Z,8.40
2018-10-21T07:05:18.715Z,8.57
2018-10-21T07:07:47.567Z,9.00
2018-10-21T07:10:16.459Z,8.47
2018-10-21T07:12:45.129Z,8.57
2018-10-21T07:15:13.957Z,10.33
2018-10-21T07:17:45.206Z,8.83
2018-10-21T07:20:13.968Z,10.30
2018-10-21T07:22:43.888Z,9.50
2018-10-21T07:25:12.678Z,9.27
2018-10-21T07:27:41.793Z,9.50
2018-10-21T07:30:12.102Z,10.90
2018-10-21T07:32:41.505Z,11.20
2018-10-21T07:35:12.327Z,11.37
2018-10-21T07:37:41.962Z,11.83
2018-10-21T07:40:11.369Z,10.40
2018-10-21T07:42:40.210Z,10.50
2018-10-21T07:45:08.954Z,10.00
2018-10-21T07:47:37.705Z,10.43
2018-10-21T07:50:06.627Z,10.50
2018-10-21T07:52:35.480Z,9.97
2018-10-21T07:55:04.364Z,10.80
2018-10-21T07:57:33.336Z,9.57
2018-10-21T08:00:02.152Z,10.60
2018-10-21T08:02:30.913Z,11.37
2018-10-21T08:04:59.725Z,10.53
2018-10-21T08:07:39.655Z,10.63
2018-10-21T08:10:09.168Z,10.70
2018-10-21T08:12:38.115Z,10.73
2018-10-21T08:15:07.035Z,10.03
2018-10-21T08:17:35.754Z,9.63
2018-10-21T08:20:04.885Z,7.53
2018-10-21T08:22:34.547Z,8.80
2018-10-21T08:25:03.530Z,7.93
2018-10-21T08:27:32.395Z,8.30
2018-10-21T08:30:01.170Z,7.33
2018-10-21T08:32:30.005Z,7.87
2018-10-21T08:34:58.809Z,7.67
2018-10-21T08:37:27.607Z,7.70
2018-10-21T08:39:56.397Z,7.20
2018-10-21T08:42:25.240Z,7.03
2018-10-21T08:44:53.982Z,7.57
2018-10-21T08:47:22.762Z,8.13
2018-10-21T08:49:51.693Z,8.90
2018-10-21T08:52:20.562Z,7.30
2018-10-21T08:54:49.399Z,8.10
2018-10-21T08:57:18.473Z,8.73
2018-10-21T08:59:47.402Z,8.93
2018-10-21T09:02:16.343Z,8.60
2018-10-21T09:04:45.078Z,9.97
2018-10-21T09:07:13.969Z,12.03
2018-10-21T09:09:42.788Z,11.47
2018-10-21T09:12:11.830Z,10.63
2018-10-21T09:14:40.620Z,10.90
2018-10-21T09:17:09.474Z,6.50
2018-10-21T09:19:38.234Z,7.50
2018-10-21T09:22:08.225Z,8.70
2018-10-21T09:24:38.015Z,6.80
2018-10-21T09:27:07.270Z,5.80
2018-10-21T09:29:37.845Z,6.20
2018-10-21T09:32:06.795Z,7.57
2018-10-21T09:34:35.635Z,7.50
2018-10-21T09:37:04.520Z,6.43
2018-10-21T09:39:33.499Z,6.23
2018-10-21T09:42:02.523Z,6.03
2018-10-21T09:44:31.225Z,6.23
2018-10-21T09:47:00.050Z,5.80
2018-10-21T09:49:28.924Z,5.77
2018-10-21T09:51:57.835Z,6.80
2018-10-21T09:54:26.684Z,5.30
2018-10-21T09:56:55.573Z,6.27
2018-10-21T09:59:24.691Z,6.60
2018-10-21T10:01:58.903Z,6.37
2018-10-21T10:04:27.799Z,6.23
2018-10-21T10:06:57.662Z,5.90
2018-10-21T10:09:26.475Z,6.03
2018-10-21T10:11:55.323Z,6.13
2018-10-21T10:14:24.306Z,5.23
2018-10-21T10:16:53.209Z,5.10
2018-10-21T10:19:22.031Z,5.33
2018-10-21T10:21:50.784Z,5.80
2018-10-21T10:24:19.667Z,4.63
2018-10-21T10:26:48.498Z,5.53
2018-10-21T10:29:17.460Z,5.70
2018-10-21T10:31:47.336Z,6.43
2018-10-21T10:34:16.215Z,6.43
2018-10-21T10:36:45.133Z,6.53
2018-10-21T10:39:14.006Z,7.20
2018-10-21T10:41:42.844Z,7.53
2018-10-21T10:44:11.622Z,6.63
2018-10-21T10:46:40.383Z,7.10
2018-10-21T10:49:09.355Z,7.60
2018-10-21T10:51:39.138Z,6.87
2018-10-21T10:54:07.521Z,7.07
2018-10-21T10:56:36.292Z,7.60
2018-10-21T10:59:05.098Z,7.17
2018-10-21T11:01:33.865Z,7.50
2018-10-21T11:04:02.707Z,6.97
2018-10-21T11:06:31.371Z,7.77
2018-10-21T11:09:00.206Z,6.93
2018-10-21T11:11:29.005Z,6.50
2018-10-21T11:13:57.887Z,5.97
2018-10-21T11:16:26.687Z,6.53
2018-10-21T11:18:55.476Z,7.90
2018-10-21T11:21:24.283Z,7.50
2018-10-21T11:23:53.027Z,6.50
2018-10-21T11:26:21.897Z,7.00
2018-10-21T11:28:50.738Z,7.70
2018-10-21T11:31:19.538Z,7.17
2018-10-21T11:33:48.372Z,6.77
2018-10-21T11:36:17.136Z,7.23
2018-10-21T11:38:45.896Z,6.40
2018-10-21T11:41:14.667Z,8.03
2018-10-21T11:43:43.469Z,7.43
2018-10-21T11:46:12.574Z,7.30
2018-10-21T11:48:41.198Z,6.17
2018-10-21T11:51:09.957Z,7.20
2018-10-21T11:53:38.832Z,6.50
2018-10-21T11:56:07.683Z,5.97
2018-10-21T11:58:36.576Z,6.60
2018-10-21T12:01:05.449Z,8.13
2018-10-21T12:03:34.177Z,6.43
2018-10-21T12:06:03.012Z,7.30
2018-10-21T12:08:31.730Z,7.17
2018-10-21T12:11:00.576Z,6.43
2018-10-21T12:13:29.335Z,8.07
2018-10-21T12:15:58.219Z,6.23
2018-10-21T12:18:27.026Z,7.50
2018-10-21T12:20:55.921Z,7.87
2018-10-21T12:23:24.814Z,8.90
2018-10-21T12:25:53.559Z,8.57
2018-10-21T12:28:22.326Z,7.20
2018-10-21T12:30:51.063Z,7.40
2018-10-21T12:33:19.814Z,6.90
2018-10-21T12:35:48.602Z,7.50
2018-10-21T12:38:17.406Z,7.93
2018-10-21T12:40:46.205Z,7.30
2018-10-21T12:43:15.020Z,6.67
2018-10-21T12:45:43.757Z,6.50
2018-10-21T12:48:12.525Z,7.20
2018-10-21T12:50:41.249Z,6.50
2018-10-21T12:53:09.995Z,8.07
2018-10-21T12:55:44.004Z,7.47
2018-10-21T12:58:12.903Z,7.17
2018-10-21T13:00:41.671Z,6.43
2018-10-21T13:03:10.605Z,4.83
2018-10-21T13:05:39.325Z,7.20
2018-10-21T13:08:08.152Z,5.93
2018-10-21T13:10:36.905Z,7.07
2018-10-21T13:13:06.112Z,5.70
2018-10-21T13:15:34.952Z,7.17
2018-10-21T13:18:04.157Z,7.57
2018-10-21T13:20:32.932Z,6.17
2018-10-21T13:23:01.744Z,6.10
2018-10-21T13:25:30.507Z,5.50
2018-10-21T13:27:59.280Z,5.10
2018-10-21T13:30:28.086Z,6.00
2018-10-21T13:32:56.921Z,5.97
2018-10-21T13:35:25.688Z,6.20
2018-10-21T13:37:54.426Z,6.13
2018-10-21T13:40:23.334Z,5.33
2018-10-21T13:42:52.104Z,5.67
2018-10-21T13:45:20.875Z,7.27
2018-10-21T13:47:49.654Z,5.87
2018-10-21T13:50:18.501Z,5.60
2018-10-21T13:52:47.282Z,6.23
2018-10-21T13:55:16.101Z,6.03
2018-10-21T13:57:44.802Z,6.60
2018-10-21T14:00:13.597Z,5.93
2018-10-21T14:02:42.407Z,5.83
2018-10-21T14:05:11.223Z,4.93
2018-10-21T14:07:40.186Z,5.17
2018-10-21T14:10:09.245Z,6.43
2018-10-21T14:12:38.001Z,6.20
2018-10-21T14:15:06.990Z,6.10
2018-10-21T14:17:35.746Z,5.97
2018-10-21T14:20:04.814Z,5.03
2018-10-21T14:22:33.599Z,7.10
2018-10-21T14:25:02.535Z,6.00
2018-10-21T14:27:31.252Z,5.67
2018-10-21T14:30:00.085Z,5.73
2018-10-21T14:32:28.866Z,5.90
2018-10-21T14:34:57.584Z,4.43
2018-10-21T14:37:26.611Z,5.60
2018-10-21T14:39:55.506Z,5.83
2018-10-21T14:42:24.288Z,5.10
2018-10-21T14:44:53.021Z,5.57
2018-10-21T14:47:21.849Z,4.13
2018-10-21T14:49:50.621Z,5.40
2018-10-21T14:52:19.337Z,5.00
2018-10-21T14:54:48.059Z,4.93
2018-10-21T14:57:16.825Z,4.90
2018-10-21T14:59:45.547Z,5.67
2018-10-21T15:02:14.503Z,4.60
2018-10-21T15:04:43.122Z,3.97
2018-10-21T15:07:11.970Z,4.63
2018-10-21T15:09:40.734Z,4.13
2018-10-21T15:12:09.589Z,4.20
2018-10-21T15:14:38.329Z,4.03
2018-10-21T15:17:07.158Z,4.77
2018-10-21T15:19:35.913Z,4.33
2018-10-21T15:22:05.052Z,4.20
2018-10-21T15:24:33.836Z,4.37
2018-10-21T15:27:02.633Z,4.40
2018-10-21T15:29:31.350Z,4.90
2018-10-21T15:32:00.182Z,4.23
2018-10-21T15:34:28.997Z,3.50
2018-10-21T15:36:57.859Z,3.50
2018-10-21T15:39:26.592Z,3.83
2018-10-21T15:41:59.113Z,3.10
2018-10-21T15:44:27.843Z,3.20
2018-10-21T15:46:56.646Z,3.63
2018-10-21T15:49:25.423Z,2.63
2018-10-21T15:51:54.288Z,3.43
2018-10-21T15:54:23.053Z,2.90
2018-10-21T15:56:51.831Z,3.03
2018-10-21T15:59:20.694Z,2.40
2018-10-21T16:01:49.428Z,2.60
2018-10-21T16:04:18.272Z,2.73
2018-10-21T16:06:46.938Z,3.10
2018-10-21T16:09:15.739Z,2.53
2018-10-21T16:11:44.569Z,2.57
2018-10-21T16:14:13.562Z,2.67
2018-10-21T16:16:42.310Z,2.70
2018-10-21T16:19:11.070Z,2.47
2018-10-21T16:21:39.824Z,2.53
2018-10-21T16:24:08.533Z,3.03
2018-10-21T16:26:37.447Z,4.07
2018-10-21T16:29:06.279Z,2.77
2018-10-21T16:31:35.155Z,2.17
2018-10-21T16:34:03.985Z,2.80
2018-10-21T16:36:32.771Z,3.37
2018-10-21T16:39:01.614Z,2.50
2018-10-21T16:41:32.805Z,2.47
2018-10-21T16:44:01.458Z,2.90
2018-10-21T16:46:47.412Z,3.20
2018-10-21T16:49:16.954Z,3.90
2018-10-21T16:51:50.203Z,3.33
2018-10-21T16:54:22.044Z,3.30
2018-10-21T16:56:54.445Z,3.53
2018-10-21T16:59:23.168Z,3.30
2018-10-21T17:01:58.125Z,3.50
2018-10-21T17:04:26.680Z,3.47
2018-10-21T17:06:57.230Z,4.70
2018-10-21T17:09:26.940Z,3.90
2018-10-21T17:11:55.373Z,3.57
2018-10-21T17:14:24.124Z,3.40
2018-10-21T17:16:53.391Z,3.23
2018-10-21T17:19:24.031Z,3.00
2018-10-21T17:21:52.544Z,3.13
2018-10-21T17:24:21.222Z,3.40
2018-10-21T17:26:49.691Z,3.73
2018-10-21T17:29:18.204Z,3.30
2018-10-21T17:31:46.762Z,3.33
2018-10-21T17:34:15.394Z,3.90
2018-10-21T17:36:43.828Z,4.17
2018-10-21T17:39:15.125Z,4.03
2018-10-21T17:41:43.850Z,3.27
2018-10-21T17:44:12.911Z,3.10
2018-10-21T17:46:41.499Z,3.90
2018-10-21T17:49:10.011Z,3.00
2018-10-21T17:51:38.529Z,4.17
2018-10-21T17:54:07.088Z,3.43
2018-10-21T17:56:39.852Z,3.10
2018-10-21T17:59:08.369Z,3.00
2018-10-21T18:01:36.933Z,4.20
2018-10-21T18:04:05.640Z,3.70
2018-10-21T18:06:39.724Z,4.00
2018-10-21T18:09:10.001Z,4.70
2018-10-21T18:11:38.608Z,4.70
2018-10-21T18:14:07.382Z,4.97
2018-10-21T18:16:36.144Z,4.70
2018-10-21T18:19:05.174Z,3.40
2018-10-21T18:21:33.680Z,3.97
2018-10-21T18:24:02.207Z,4.40
2018-10-21T18:26:32.000Z,3.57
2018-10-21T18:29:06.205Z,5.17
2018-10-21T18:31:34.765Z,5.50
2018-10-21T18:34:03.351Z,3.73
2018-10-21T18:36:32.886Z,3.30
2018-10-21T18:39:01.442Z,4.60
2018-10-21T18:41:39.720Z,3.73
2018-10-21T18:44:08.806Z,3.80
2018-10-21T18:46:37.429Z,3.97
2018-10-21T18:49:06.025Z,5.00
2018-10-21T18:51:34.563Z,5.07
2018-10-21T18:54:03.085Z,5.17
2018-10-21T18:56:31.658Z,5.30
2018-10-21T18:59:00.180Z,6.40
2018-10-21T19:01:28.673Z,6.00
2018-10-21T19:03:57.247Z,5.87
2018-10-21T19:06:26.766Z,6.50
2018-10-21T19:08:55.294Z,5.60
2018-10-21T19:11:23.810Z,5.57
2018-10-21T19:13:52.523Z,6.20
2018-10-21T19:16:21.225Z,5.90
2018-10-21T19:18:51.805Z,5.60
2018-10-21T19:21:20.330Z,5.63
2018-10-21T19:23:48.859Z,6.50
2018-10-21T19:26:17.717Z,5.63
2018-10-21T19:28:46.225Z,5.47
2018-10-21T19:31:14.854Z,5.40
2018-10-21T19:33:43.390Z,5.43
2018-10-21T19:36:11.863Z,5.27
2018-10-21T19:38:40.423Z,5.27
2018-10-21T19:41:08.937Z,5.93
2018-10-21T19:43:37.622Z,4.53
2018-10-21T19:46:06.231Z,5.20
2018-10-21T19:48:34.792Z,5.33
2018-10-21T19:51:03.381Z,5.90
2018-10-21T19:53:31.965Z,4.90
2018-10-21T19:56:00.482Z,5.77
2018-10-21T19:58:30.078Z,5.57
2018-10-21T20:00:58.572Z,5.37
2018-10-21T20:03:27.157Z,5.23
2018-10-21T20:05:55.652Z,5.23
2018-10-21T20:08:24.193Z,5.23
2018-10-21T20:10:52.708Z,4.70
2018-10-21T20:13:21.233Z,4.80
2018-10-21T20:15:49.736Z,4.87
2018-10-21T20:18:18.295Z,4.90
2018-10-21T20:20:46.794Z,5.33
2018-10-21T20:23:15.293Z,5.30
2018-10-21T20:25:43.823Z,5.97
2018-10-21T20:28:12.426Z,6.60
2018-10-21T20:30:41.075Z,5.30
2018-10-21T20:33:09.688Z,6.17
2018-10-21T20:35:38.194Z,6.37
2018-10-21T20:38:06.715Z,6.03
2018-10-21T20:40:35.242Z,6.73
2018-10-21T20:43:03.784Z,6.67
2018-10-21T20:45:32.304Z,7.20
2018-10-21T20:48:00.854Z,6.57
2018-10-21T20:50:29.469Z,5.57
2018-10-21T20:52:57.998Z,5.10
2018-10-21T20:55:26.545Z,5.53
2018-10-21T20:57:55.127Z,7.10
2018-10-21T21:00:23.611Z,6.30
2018-10-21T21:02:52.154Z,5.23
2018-10-21T21:05:20.708Z,5.77
2018-10-21T21:07:49.229Z,5.57
2018-10-21T21:10:17.873Z,5.40
2018-10-21T21:12:46.340Z,6.57
2018-10-21T21:15:14.848Z,6.00
2018-10-21T21:17:43.385Z,6.07
2018-10-21T21:20:11.950Z,6.97
2018-10-21T21:22:40.463Z,5.80
2018-10-21T21:25:08.968Z,5.80
2018-10-21T21:27:37.480Z,5.70
2018-10-21T21:30:06.641Z,5.70
2018-10-21T21:32:35.115Z,5.50
2018-10-21T21:35:05.654Z,6.60
2018-10-21T21:37:34.205Z,5.50
2018-10-21T21:40:02.759Z,5.90
2018-10-21T21:42:31.295Z,5.77
2018-10-21T21:44:59.799Z,6.10
2018-10-21T21:47:28.336Z,5.90
2018-10-21T21:49:56.823Z,5.90
2018-10-21T21:52:25.339Z,5.90
2018-10-21T21:54:53.835Z,6.00
2018-10-21T21:57:22.378Z,6.10
2018-10-21T21:59:50.874Z,5.93
2018-10-21T22:02:19.417Z,5.90
2018-10-21T22:04:47.918Z,5.70
2018-10-21T22:07:16.449Z,5.60
2018-10-21T22:09:44.948Z,5.80
2018-10-21T22:12:13.632Z,5.87
2018-10-21T22:14:42.148Z,4.57
2018-10-21T22:17:10.711Z,5.70
2018-10-21T22:19:39.221Z,5.67
2018-10-21T22:22:07.797Z,4.97
2018-10-21T22:24:36.292Z,5.20
2018-10-21T22:27:04.835Z,5.00
2018-10-21T22:29:33.342Z,5.87
2018-10-21T22:32:01.893Z,5.30
2018-10-21T22:34:30.381Z,5.60
2018-10-21T22:36:58.891Z,5.97
2018-10-21T22:39:27.447Z,6.30
2018-10-21T22:41:55.963Z,5.57
2018-10-21T22:44:24.537Z,5.80
2018-10-21T22:46:53.090Z,5.27
2018-10-21T22:49:21.639Z,5.37
2018-10-21T22:51:50.159Z,6.47
2018-10-21T22:54:18.762Z,5.67
2018-10-21T22:56:47.197Z,6.67
2018-10-21T22:59:15.730Z,6.60
2018-10-21T23:01:44.261Z,4.97
2018-10-21T23:04:12.866Z,5.20
2018-10-21T23:06:41.319Z,6.20
2018-10-21T23:09:11.278Z,5.80
2018-10-21T23:11:40.091Z,5.47
2018-10-21T23:14:08.556Z,5.20
2018-10-21T23:16:37.065Z,5.10
2018-10-21T23:19:16.547Z,5.90
2018-10-21T23:21:45.069Z,5.97
2018-10-21T23:24:13.670Z,4.73
2018-10-21T23:26:42.192Z,5.17
2018-10-21T23:29:10.743Z,5.33
2018-10-21T23:31:39.276Z,5.57
2018-10-21T23:34:07.812Z,5.70
2018-10-21T23:36:36.336Z,4.80
2018-10-21T23:39:05.649Z,6.10
2018-10-21T23:41:34.161Z,4.60
2018-10-21T23:44:02.760Z,5.40
2018-10-21T23:46:31.276Z,5.70
2018-10-21T23:49:00.184Z,4.90
2018-10-21T23:51:28.681Z,5.40
2018-10-21T23:53:57.198Z,5.40
2018-10-21T23:56:25.732Z,5.50
2018-10-21T23:58:54.272Z,6.23
